sensor_id;sensor_type;location;lat;lon;timestamp;temperature;humidity
4501;DHT22;2263;54.654;9.410;2022-11-12T00:01:06;12.80;93.90
4501;DHT22;2263;54.654;9.410;2022-11-12T00:03:33;12.80;93.90
4501;DHT22;2263;54.654;9.410;2022-11-12T00:06:00;12.80;94.00
4501;DHT22;2263;54.654;9.410;2022-11-12T00:08:27;12.80;93.90
4501;DHT22;2263;54.654;9.410;2022-11-12T00:10:55;12.80;93.90
4501;DHT22;2263;54.654;9.410;2022-11-12T00:13:22;12.80;93.90
4501;DHT22;2263;54.654;9.410;2022-11-12T00:15:50;12.80;94.00
4501;DHT22;2263;54.654;9.410;2022-11-12T00:18:17;12.80;94.00
4501;DHT22;2263;54.654;9.410;2022-11-12T00:20:44;12.80;93.90
4501;DHT22;2263;54.654;9.410;2022-11-12T00:23:11;12.80;94.00
4501;DHT22;2263;54.654;9.410;2022-11-12T00:25:39;12.80;94.00
4501;DHT22;2263;54.654;9.410;2022-11-12T00:28:08;12.80;94.00
4501;DHT22;2263;54.654;9.410;2022-11-12T00:30:39;12.80;94.00
4501;DHT22;2263;54.654;9.410;2022-11-12T00:33:07;12.80;94.00
4501;DHT22;2263;54.654;9.410;2022-11-12T00:35:34;12.80;94.00
4501;DHT22;2263;54.654;9.410;2022-11-12T00:38:01;12.80;94.00
4501;DHT22;2263;54.654;9.410;2022-11-12T00:40:29;12.80;94.00
4501;DHT22;2263;54.654;9.410;2022-11-12T00:42:56;12.80;94.00
4501;DHT22;2263;54.654;9.410;2022-11-12T00:45:24;12.80;94.00
4501;DHT22;2263;54.654;9.410;2022-11-12T00:47:55;12.80;94.00
4501;DHT22;2263;54.654;9.410;2022-11-12T00:50:23;12.80;94.00
4501;DHT22;2263;54.654;9.410;2022-11-12T00:52:52;12.80;94.00
4501;DHT22;2263;54.654;9.410;2022-11-12T00:55:19;12.80;94.00
4501;DHT22;2263;54.654;9.410;2022-11-12T00:57:46;12.70;94.00
4501;DHT22;2263;54.654;9.410;2022-11-12T01:00:15;12.80;94.00
4501;DHT22;2263;54.654;9.410;2022-11-12T01:02:43;12.80;94.00
4501;DHT22;2263;54.654;9.410;2022-11-12T01:05:17;12.80;94.00
4501;DHT22;2263;54.654;9.410;2022-11-12T01:07:44;12.80;94.10
4501;DHT22;2263;54.654;9.410;2022-11-12T01:10:12;12.80;94.10
4501;DHT22;2263;54.654;9.410;2022-11-12T01:12:40;12.70;94.00
4501;DHT22;2263;54.654;9.410;2022-11-12T01:15:07;12.70;94.00
4501;DHT22;2263;54.654;9.410;2022-11-12T01:17:34;12.70;94.00
4501;DHT22;2263;54.654;9.410;2022-11-12T01:20:02;12.70;94.00
4501;DHT22;2263;54.654;9.410;2022-11-12T01:22:29;12.70;94.00
4501;DHT22;2263;54.654;9.410;2022-11-12T01:24:56;12.70;94.00
4501;DHT22;2263;54.654;9.410;2022-11-12T01:27:23;12.70;94.10
4501;DHT22;2263;54.654;9.410;2022-11-12T01:29:50;12.70;94.10
4501;DHT22;2263;54.654;9.410;2022-11-12T01:32:18;12.70;94.10
4501;DHT22;2263;54.654;9.410;2022-11-12T01:34:45;12.70;94.10
4501;DHT22;2263;54.654;9.410;2022-11-12T01:37:12;12.70;94.10
4501;DHT22;2263;54.654;9.410;2022-11-12T01:39:39;12.70;94.10
4501;DHT22;2263;54.654;9.410;2022-11-12T01:42:06;12.70;94.10
4501;DHT22;2263;54.654;9.410;2022-11-12T01:44:34;12.70;94.10
4501;DHT22;2263;54.654;9.410;2022-11-12T01:49:54;12.70;94.20
4501;DHT22;2263;54.654;9.410;2022-11-12T01:52:32;12.70;94.20
4501;DHT22;2263;54.654;9.410;2022-11-12T01:55:14;12.70;94.20
4501;DHT22;2263;54.654;9.410;2022-11-12T01:57:51;12.70;94.20
4501;DHT22;2263;54.654;9.410;2022-11-12T02:00:19;12.70;94.20
4501;DHT22;2263;54.654;9.410;2022-11-12T02:02:52;12.70;94.20
4501;DHT22;2263;54.654;9.410;2022-11-12T02:05:21;12.70;94.20
4501;DHT22;2263;54.654;9.410;2022-11-12T02:07:49;12.70;94.20
4501;DHT22;2263;54.654;9.410;2022-11-12T02:10:19;12.70;94.20
4501;DHT22;2263;54.654;9.410;2022-11-12T02:12:48;12.70;94.20
4501;DHT22;2263;54.654;9.410;2022-11-12T02:15:34;12.70;94.20
4501;DHT22;2263;54.654;9.410;2022-11-12T02:18:02;12.70;94.30
4501;DHT22;2263;54.654;9.410;2022-11-12T02:20:34;12.70;94.30
4501;DHT22;2263;54.654;9.410;2022-11-12T02:23:02;12.70;94.30
4501;DHT22;2263;54.654;9.410;2022-11-12T02:25:30;12.70;94.20
4501;DHT22;2263;54.654;9.410;2022-11-12T02:27:58;12.70;94.30
4501;DHT22;2263;54.654;9.410;2022-11-12T02:30:45;12.70;94.30
4501;DHT22;2263;54.654;9.410;2022-11-12T02:33:12;12.70;94.30
4501;DHT22;2263;54.654;9.410;2022-11-12T02:35:40;12.70;94.30
4501;DHT22;2263;54.654;9.410;2022-11-12T02:38:07;12.70;94.30
4501;DHT22;2263;54.654;9.410;2022-11-12T02:40:35;12.70;94.30
4501;DHT22;2263;54.654;9.410;2022-11-12T02:43:02;12.70;94.30
4501;DHT22;2263;54.654;9.410;2022-11-12T02:45:30;12.70;94.30
4501;DHT22;2263;54.654;9.410;2022-11-12T02:47:58;12.70;94.40
4501;DHT22;2263;54.654;9.410;2022-11-12T02:50:25;12.70;94.30
4501;DHT22;2263;54.654;9.410;2022-11-12T02:52:52;12.70;94.30
4501;DHT22;2263;54.654;9.410;2022-11-12T02:55:19;12.70;94.30
4501;DHT22;2263;54.654;9.410;2022-11-12T02:57:46;12.70;94.30
4501;DHT22;2263;54.654;9.410;2022-11-12T03:00:14;12.70;94.30
4501;DHT22;2263;54.654;9.410;2022-11-12T03:02:41;12.70;94.30
4501;DHT22;2263;54.654;9.410;2022-11-12T03:05:10;12.70;94.30
4501;DHT22;2263;54.654;9.410;2022-11-12T03:07:37;12.70;94.30
4501;DHT22;2263;54.654;9.410;2022-11-12T03:10:05;12.70;94.30
4501;DHT22;2263;54.654;9.410;2022-11-12T03:12:32;12.70;94.30
4501;DHT22;2263;54.654;9.410;2022-11-12T03:15:00;12.70;94.30
4501;DHT22;2263;54.654;9.410;2022-11-12T03:17:27;12.70;94.30
4501;DHT22;2263;54.654;9.410;2022-11-12T03:19:54;12.70;94.30
4501;DHT22;2263;54.654;9.410;2022-11-12T03:22:21;12.70;94.30
4501;DHT22;2263;54.654;9.410;2022-11-12T03:24:48;12.70;94.30
4501;DHT22;2263;54.654;9.410;2022-11-12T03:27:15;12.70;94.30
4501;DHT22;2263;54.654;9.410;2022-11-12T03:29:42;12.70;94.30
4501;DHT22;2263;54.654;9.410;2022-11-12T03:32:10;12.70;94.30
4501;DHT22;2263;54.654;9.410;2022-11-12T03:34:37;12.70;94.30
4501;DHT22;2263;54.654;9.410;2022-11-12T03:37:04;12.70;94.30
4501;DHT22;2263;54.654;9.410;2022-11-12T03:39:35;12.70;94.30
4501;DHT22;2263;54.654;9.410;2022-11-12T03:42:03;12.70;94.40
4501;DHT22;2263;54.654;9.410;2022-11-12T03:44:30;12.70;94.40
4501;DHT22;2263;54.654;9.410;2022-11-12T03:46:57;12.70;94.40
4501;DHT22;2263;54.654;9.410;2022-11-12T03:49:24;12.70;94.40
4501;DHT22;2263;54.654;9.410;2022-11-12T03:51:51;12.70;94.40
4501;DHT22;2263;54.654;9.410;2022-11-12T03:54:18;12.70;94.40
4501;DHT22;2263;54.654;9.410;2022-11-12T03:56:46;12.70;94.40
4501;DHT22;2263;54.654;9.410;2022-11-12T03:59:13;12.60;94.30
4501;DHT22;2263;54.654;9.410;2022-11-12T04:01:40;12.60;94.30
4501;DHT22;2263;54.654;9.410;2022-11-12T04:04:08;12.60;94.40
4501;DHT22;2263;54.654;9.410;2022-11-12T04:06:35;12.60;94.30
4501;DHT22;2263;54.654;9.410;2022-11-12T04:09:21;12.60;94.40
4501;DHT22;2263;54.654;9.410;2022-11-12T04:11:48;12.60;94.40
4501;DHT22;2263;54.654;9.410;2022-11-12T04:14:15;12.60;94.40
4501;DHT22;2263;54.654;9.410;2022-11-12T04:16:42;12.60;94.30
4501;DHT22;2263;54.654;9.410;2022-11-12T04:19:32;12.70;94.50
4501;DHT22;2263;54.654;9.410;2022-11-12T04:22:18;12.60;94.30
4501;DHT22;2263;54.654;9.410;2022-11-12T04:24:45;12.60;94.40
4501;DHT22;2263;54.654;9.410;2022-11-12T04:27:50;12.60;94.40
4501;DHT22;2263;54.654;9.410;2022-11-12T04:30:18;12.60;94.50
4501;DHT22;2263;54.654;9.410;2022-11-12T04:32:52;12.60;94.40
4501;DHT22;2263;54.654;9.410;2022-11-12T04:35:24;12.60;94.50
4501;DHT22;2263;54.654;9.410;2022-11-12T04:37:52;12.60;94.50
4501;DHT22;2263;54.654;9.410;2022-11-12T04:40:22;12.60;94.50
4501;DHT22;2263;54.654;9.410;2022-11-12T04:43:13;12.60;94.70
4501;DHT22;2263;54.654;9.410;2022-11-12T04:46:00;12.60;94.50
4501;DHT22;2263;54.654;9.410;2022-11-12T04:48:28;12.60;94.50
4501;DHT22;2263;54.654;9.410;2022-11-12T04:50:58;12.60;94.50
4501;DHT22;2263;54.654;9.410;2022-11-12T04:53:26;12.60;94.50
4501;DHT22;2263;54.654;9.410;2022-11-12T04:55:55;12.60;94.40
4501;DHT22;2263;54.654;9.410;2022-11-12T04:58:23;12.60;94.50
4501;DHT22;2263;54.654;9.410;2022-11-12T05:00:51;12.60;94.50
4501;DHT22;2263;54.654;9.410;2022-11-12T05:03:18;12.60;94.50
4501;DHT22;2263;54.654;9.410;2022-11-12T05:05:46;12.60;94.50
4501;DHT22;2263;54.654;9.410;2022-11-12T05:08:13;12.60;94.50
4501;DHT22;2263;54.654;9.410;2022-11-12T05:10:40;12.60;94.50
4501;DHT22;2263;54.654;9.410;2022-11-12T05:13:07;12.60;94.60
4501;DHT22;2263;54.654;9.410;2022-11-12T05:15:34;12.60;94.50
4501;DHT22;2263;54.654;9.410;2022-11-12T05:18:01;12.60;94.50
4501;DHT22;2263;54.654;9.410;2022-11-12T05:20:28;12.60;94.50
4501;DHT22;2263;54.654;9.410;2022-11-12T05:22:56;12.60;94.50
4501;DHT22;2263;54.654;9.410;2022-11-12T05:25:37;12.60;94.50
4501;DHT22;2263;54.654;9.410;2022-11-12T05:28:04;12.60;94.50
4501;DHT22;2263;54.654;9.410;2022-11-12T05:30:33;12.60;94.50
4501;DHT22;2263;54.654;9.410;2022-11-12T05:33:00;12.60;94.50
4501;DHT22;2263;54.654;9.410;2022-11-12T05:35:27;12.60;94.50
4501;DHT22;2263;54.654;9.410;2022-11-12T05:37:54;12.60;94.50
4501;DHT22;2263;54.654;9.410;2022-11-12T05:40:21;12.60;94.50
4501;DHT22;2263;54.654;9.410;2022-11-12T05:42:48;12.60;94.60
4501;DHT22;2263;54.654;9.410;2022-11-12T05:45:15;12.60;94.60
4501;DHT22;2263;54.654;9.410;2022-11-12T05:47:43;12.60;94.60
4501;DHT22;2263;54.654;9.410;2022-11-12T05:50:10;12.60;94.60
4501;DHT22;2263;54.654;9.410;2022-11-12T05:52:37;12.60;94.50
4501;DHT22;2263;54.654;9.410;2022-11-12T05:55:04;12.60;94.50
4501;DHT22;2263;54.654;9.410;2022-11-12T05:57:31;12.60;94.50
4501;DHT22;2263;54.654;9.410;2022-11-12T05:59:59;12.60;94.50
4501;DHT22;2263;54.654;9.410;2022-11-12T06:02:26;12.60;94.50
4501;DHT22;2263;54.654;9.410;2022-11-12T06:04:53;12.60;94.60
4501;DHT22;2263;54.654;9.410;2022-11-12T06:07:20;12.60;94.60
4501;DHT22;2263;54.654;9.410;2022-11-12T06:09:47;12.60;94.60
4501;DHT22;2263;54.654;9.410;2022-11-12T06:12:14;12.60;94.60
4501;DHT22;2263;54.654;9.410;2022-11-12T06:14:42;12.60;94.60
4501;DHT22;2263;54.654;9.410;2022-11-12T06:17:09;12.60;94.60
4501;DHT22;2263;54.654;9.410;2022-11-12T06:19:36;12.60;94.60
4501;DHT22;2263;54.654;9.410;2022-11-12T06:22:03;12.60;94.60
4501;DHT22;2263;54.654;9.410;2022-11-12T06:24:30;12.50;94.60
4501;DHT22;2263;54.654;9.410;2022-11-12T06:27:01;12.50;94.60
4501;DHT22;2263;54.654;9.410;2022-11-12T06:29:28;12.60;94.60
4501;DHT22;2263;54.654;9.410;2022-11-12T06:31:56;12.50;94.60
4501;DHT22;2263;54.654;9.410;2022-11-12T06:34:23;12.50;94.60
4501;DHT22;2263;54.654;9.410;2022-11-12T06:36:50;12.50;94.90
4501;DHT22;2263;54.654;9.410;2022-11-12T06:39:17;12.50;94.60
4501;DHT22;2263;54.654;9.410;2022-11-12T06:41:44;12.50;94.60
4501;DHT22;2263;54.654;9.410;2022-11-12T06:44:11;12.50;94.60
4501;DHT22;2263;54.654;9.410;2022-11-12T06:46:43;12.50;94.60
4501;DHT22;2263;54.654;9.410;2022-11-12T06:49:10;12.50;94.60
4501;DHT22;2263;54.654;9.410;2022-11-12T06:51:37;12.50;94.60
4501;DHT22;2263;54.654;9.410;2022-11-12T06:54:07;12.50;94.60
4501;DHT22;2263;54.654;9.410;2022-11-12T06:56:34;12.50;94.60
4501;DHT22;2263;54.654;9.410;2022-11-12T06:59:01;12.50;94.60
4501;DHT22;2263;54.654;9.410;2022-11-12T07:01:29;12.50;94.50
4501;DHT22;2263;54.654;9.410;2022-11-12T07:03:56;12.50;94.60
4501;DHT22;2263;54.654;9.410;2022-11-12T07:06:23;12.50;94.60
4501;DHT22;2263;54.654;9.410;2022-11-12T07:08:50;12.50;94.60
4501;DHT22;2263;54.654;9.410;2022-11-12T07:11:18;12.50;94.60
4501;DHT22;2263;54.654;9.410;2022-11-12T07:13:46;12.50;94.60
4501;DHT22;2263;54.654;9.410;2022-11-12T07:16:13;12.50;94.60
4501;DHT22;2263;54.654;9.410;2022-11-12T07:18:45;12.50;94.60
4501;DHT22;2263;54.654;9.410;2022-11-12T07:21:17;12.50;94.60
4501;DHT22;2263;54.654;9.410;2022-11-12T07:23:45;12.50;94.60
4501;DHT22;2263;54.654;9.410;2022-11-12T07:26:20;12.50;94.60
4501;DHT22;2263;54.654;9.410;2022-11-12T07:28:49;12.50;94.60
4501;DHT22;2263;54.654;9.410;2022-11-12T07:31:18;12.50;94.60
4501;DHT22;2263;54.654;9.410;2022-11-12T07:33:46;12.50;94.60
4501;DHT22;2263;54.654;9.410;2022-11-12T07:36:17;12.50;94.60
4501;DHT22;2263;54.654;9.410;2022-11-12T07:38:45;12.50;94.60
4501;DHT22;2263;54.654;9.410;2022-11-12T07:41:15;12.50;94.50
4501;DHT22;2263;54.654;9.410;2022-11-12T07:43:44;12.50;94.60
4501;DHT22;2263;54.654;9.410;2022-11-12T07:46:17;12.50;94.60
4501;DHT22;2263;54.654;9.410;2022-11-12T07:48:45;12.50;94.60
4501;DHT22;2263;54.654;9.410;2022-11-12T07:53:44;12.50;94.50
4501;DHT22;2263;54.654;9.410;2022-11-12T07:56:14;12.50;94.60
4501;DHT22;2263;54.654;9.410;2022-11-12T07:58:41;12.50;94.50
4501;DHT22;2263;54.654;9.410;2022-11-12T08:03:58;12.50;94.50
4501;DHT22;2263;54.654;9.410;2022-11-12T08:06:26;12.50;94.50
4501;DHT22;2263;54.654;9.410;2022-11-12T08:08:54;12.50;94.50
4501;DHT22;2263;54.654;9.410;2022-11-12T08:11:22;12.50;94.50
4501;DHT22;2263;54.654;9.410;2022-11-12T08:13:50;12.50;94.50
4501;DHT22;2263;54.654;9.410;2022-11-12T08:16:17;12.50;94.50
4501;DHT22;2263;54.654;9.410;2022-11-12T08:18:45;12.50;94.50
4501;DHT22;2263;54.654;9.410;2022-11-12T08:21:15;12.50;94.50
4501;DHT22;2263;54.654;9.410;2022-11-12T08:23:43;12.50;94.50
4501;DHT22;2263;54.654;9.410;2022-11-12T08:26:12;12.50;94.50
4501;DHT22;2263;54.654;9.410;2022-11-12T08:28:40;12.50;94.50
4501;DHT22;2263;54.654;9.410;2022-11-12T08:31:14;12.50;94.50
4501;DHT22;2263;54.654;9.410;2022-11-12T08:33:42;12.50;94.50
4501;DHT22;2263;54.654;9.410;2022-11-12T08:36:12;12.50;94.50
4501;DHT22;2263;54.654;9.410;2022-11-12T08:38:40;12.50;94.60
4501;DHT22;2263;54.654;9.410;2022-11-12T08:41:11;12.50;94.60
4501;DHT22;2263;54.654;9.410;2022-11-12T08:43:39;12.50;94.50
4501;DHT22;2263;54.654;9.410;2022-11-12T08:46:07;12.50;94.50
4501;DHT22;2263;54.654;9.410;2022-11-12T08:48:35;12.50;94.50
4501;DHT22;2263;54.654;9.410;2022-11-12T08:51:04;12.50;94.60
4501;DHT22;2263;54.654;9.410;2022-11-12T08:53:31;12.50;94.50
4501;DHT22;2263;54.654;9.410;2022-11-12T08:55:59;12.50;94.50
4501;DHT22;2263;54.654;9.410;2022-11-12T08:58:26;12.50;94.50
4501;DHT22;2263;54.654;9.410;2022-11-12T09:00:55;12.50;94.50
4501;DHT22;2263;54.654;9.410;2022-11-12T09:03:24;12.50;94.60
4501;DHT22;2263;54.654;9.410;2022-11-12T09:05:53;12.50;94.50
4501;DHT22;2263;54.654;9.410;2022-11-12T09:08:23;12.50;94.50
4501;DHT22;2263;54.654;9.410;2022-11-12T09:10:51;12.50;94.50
4501;DHT22;2263;54.654;9.410;2022-11-12T09:13:18;12.50;94.50
4501;DHT22;2263;54.654;9.410;2022-11-12T09:15:46;12.50;94.50
4501;DHT22;2263;54.654;9.410;2022-11-12T09:18:16;12.50;94.40
4501;DHT22;2263;54.654;9.410;2022-11-12T09:20:43;12.50;94.50
4501;DHT22;2263;54.654;9.410;2022-11-12T09:23:13;12.50;94.50
4501;DHT22;2263;54.654;9.410;2022-11-12T09:25:41;12.50;94.50
4501;DHT22;2263;54.654;9.410;2022-11-12T09:28:12;12.50;94.50
4501;DHT22;2263;54.654;9.410;2022-11-12T09:30:47;12.50;94.40
4501;DHT22;2263;54.654;9.410;2022-11-12T09:33:17;12.50;94.50
4501;DHT22;2263;54.654;9.410;2022-11-12T09:35:46;12.50;94.50
4501;DHT22;2263;54.654;9.410;2022-11-12T09:38:13;12.50;94.40
4501;DHT22;2263;54.654;9.410;2022-11-12T09:43:40;12.50;94.40
4501;DHT22;2263;54.654;9.410;2022-11-12T09:51:37;12.50;94.40
4501;DHT22;2263;54.654;9.410;2022-11-12T09:54:16;12.50;94.40
4501;DHT22;2263;54.654;9.410;2022-11-12T09:56:46;12.50;94.40
4501;DHT22;2263;54.654;9.410;2022-11-12T09:59:15;12.50;94.40
4501;DHT22;2263;54.654;9.410;2022-11-12T10:07:46;12.50;94.40
4501;DHT22;2263;54.654;9.410;2022-11-12T10:13:11;12.60;94.80
4501;DHT22;2263;54.654;9.410;2022-11-12T10:16:06;12.60;94.50
4501;DHT22;2263;54.654;9.410;2022-11-12T10:22:10;12.60;94.50
4501;DHT22;2263;54.654;9.410;2022-11-12T10:24:42;12.60;94.50
4501;DHT22;2263;54.654;9.410;2022-11-12T10:27:19;12.60;94.50
4501;DHT22;2263;54.654;9.410;2022-11-12T10:30:00;12.60;94.40
4501;DHT22;2263;54.654;9.410;2022-11-12T10:32:28;12.60;94.50
4501;DHT22;2263;54.654;9.410;2022-11-12T10:34:55;12.60;94.50
4501;DHT22;2263;54.654;9.410;2022-11-12T10:37:40;12.60;94.50
4501;DHT22;2263;54.654;9.410;2022-11-12T10:40:36;12.60;94.50
4501;DHT22;2263;54.654;9.410;2022-11-12T10:45:43;12.60;94.50
4501;DHT22;2263;54.654;9.410;2022-11-12T10:48:23;12.50;94.50
4501;DHT22;2263;54.654;9.410;2022-11-12T10:50:55;12.60;94.50
4501;DHT22;2263;54.654;9.410;2022-11-12T10:53:37;12.60;94.50
4501;DHT22;2263;54.654;9.410;2022-11-12T10:59:15;12.60;94.40
4501;DHT22;2263;54.654;9.410;2022-11-12T11:01:43;12.60;94.50
4501;DHT22;2263;54.654;9.410;2022-11-12T11:04:23;12.60;94.50
4501;DHT22;2263;54.654;9.410;2022-11-12T11:07:19;12.60;94.40
4501;DHT22;2263;54.654;9.410;2022-11-12T11:09:55;12.60;94.40
4501;DHT22;2263;54.654;9.410;2022-11-12T11:12:28;12.60;94.50
4501;DHT22;2263;54.654;9.410;2022-11-12T11:17:41;12.60;94.40
4501;DHT22;2263;54.654;9.410;2022-11-12T11:20:24;12.60;94.40
4501;DHT22;2263;54.654;9.410;2022-11-12T11:22:55;12.60;94.40
4501;DHT22;2263;54.654;9.410;2022-11-12T11:25:26;12.60;94.40
4501;DHT22;2263;54.654;9.410;2022-11-12T11:28:11;12.60;94.40
4501;DHT22;2263;54.654;9.410;2022-11-12T11:30:59;12.60;94.40
4501;DHT22;2263;54.654;9.410;2022-11-12T11:36:41;12.60;94.40
4501;DHT22;2263;54.654;9.410;2022-11-12T11:39:39;12.60;94.40
4501;DHT22;2263;54.654;9.410;2022-11-12T11:47:26;12.60;94.40
4501;DHT22;2263;54.654;9.410;2022-11-12T11:50:24;12.60;94.40
4501;DHT22;2263;54.654;9.410;2022-11-12T11:53:18;12.60;94.40
4501;DHT22;2263;54.654;9.410;2022-11-12T11:56:02;12.60;94.40
4501;DHT22;2263;54.654;9.410;2022-11-12T12:15:01;12.60;94.30
4501;DHT22;2263;54.654;9.410;2022-11-12T12:20:29;12.60;94.30
4501;DHT22;2263;54.654;9.410;2022-11-12T12:23:07;12.60;94.30
4501;DHT22;2263;54.654;9.410;2022-11-12T12:25:39;12.60;94.30
4501;DHT22;2263;54.654;9.410;2022-11-12T12:31:26;12.60;94.30
4501;DHT22;2263;54.654;9.410;2022-11-12T12:33:58;12.60;94.30
4501;DHT22;2263;54.654;9.410;2022-11-12T12:36:38;12.60;94.30
4501;DHT22;2263;54.654;9.410;2022-11-12T12:39:10;12.60;94.30
4501;DHT22;2263;54.654;9.410;2022-11-12T12:41:48;12.60;94.30
4501;DHT22;2263;54.654;9.410;2022-11-12T12:44:17;12.60;94.30
4501;DHT22;2263;54.654;9.410;2022-11-12T12:46:49;12.60;94.30
4501;DHT22;2263;54.654;9.410;2022-11-12T12:49:27;12.60;94.30
4501;DHT22;2263;54.654;9.410;2022-11-12T12:51:55;12.60;94.20
4501;DHT22;2263;54.654;9.410;2022-11-12T12:57:03;12.50;94.30
4501;DHT22;2263;54.654;9.410;2022-11-12T12:59:30;12.60;94.30
4501;DHT22;2263;54.654;9.410;2022-11-12T13:02:00;12.60;94.30
4501;DHT22;2263;54.654;9.410;2022-11-12T13:04:54;12.60;94.30
4501;DHT22;2263;54.654;9.410;2022-11-12T13:07:43;12.60;94.30
4501;DHT22;2263;54.654;9.410;2022-11-12T13:10:33;12.60;94.30
4501;DHT22;2263;54.654;9.410;2022-11-12T13:26:56;12.60;94.20
4501;DHT22;2263;54.654;9.410;2022-11-12T13:48:45;12.60;94.30
4501;DHT22;2263;54.654;9.410;2022-11-12T13:51:39;12.60;94.30
4501;DHT22;2263;54.654;9.410;2022-11-12T13:56:51;12.50;94.20
4501;DHT22;2263;54.654;9.410;2022-11-12T13:59:20;12.60;94.30
4501;DHT22;2263;54.654;9.410;2022-11-12T14:01:49;12.50;94.30
4501;DHT22;2263;54.654;9.410;2022-11-12T14:04:22;12.60;94.30
4501;DHT22;2263;54.654;9.410;2022-11-12T14:06:57;12.60;94.30
4501;DHT22;2263;54.654;9.410;2022-11-12T14:12:52;12.50;94.20
4501;DHT22;2263;54.654;9.410;2022-11-12T14:18:14;12.50;94.30
4501;DHT22;2263;54.654;9.410;2022-11-12T14:20:43;12.50;94.30
4501;DHT22;2263;54.654;9.410;2022-11-12T14:23:12;12.50;94.30
4501;DHT22;2263;54.654;9.410;2022-11-12T14:28:30;12.50;94.30
4501;DHT22;2263;54.654;9.410;2022-11-12T14:30:58;12.50;94.30
4501;DHT22;2263;54.654;9.410;2022-11-12T14:33:27;12.50;94.30
4501;DHT22;2263;54.654;9.410;2022-11-12T14:36:09;12.50;94.30
4501;DHT22;2263;54.654;9.410;2022-11-12T14:38:40;12.50;94.20
4501;DHT22;2263;54.654;9.410;2022-11-12T14:43:54;12.50;94.30
4501;DHT22;2263;54.654;9.410;2022-11-12T14:46:49;12.50;94.20
4501;DHT22;2263;54.654;9.410;2022-11-12T14:49:41;12.50;94.30
4501;DHT22;2263;54.654;9.410;2022-11-12T14:52:18;12.50;94.20
4501;DHT22;2263;54.654;9.410;2022-11-12T14:54:53;12.50;94.20
4501;DHT22;2263;54.654;9.410;2022-11-12T14:57:28;12.50;94.20
4501;DHT22;2263;54.654;9.410;2022-11-12T14:59:56;12.50;94.30
4501;DHT22;2263;54.654;9.410;2022-11-12T15:02:31;12.50;94.20
4501;DHT22;2263;54.654;9.410;2022-11-12T15:05:19;12.50;94.20
4501;DHT22;2263;54.654;9.410;2022-11-12T15:07:56;12.50;94.20
4501;DHT22;2263;54.654;9.410;2022-11-12T15:10:37;12.50;94.20
4501;DHT22;2263;54.654;9.410;2022-11-12T15:13:09;12.50;94.20
4501;DHT22;2263;54.654;9.410;2022-11-12T15:15:39;12.50;94.20
4501;DHT22;2263;54.654;9.410;2022-11-12T15:18:22;12.50;94.20
4501;DHT22;2263;54.654;9.410;2022-11-12T15:21:24;12.50;94.20
4501;DHT22;2263;54.654;9.410;2022-11-12T15:24:00;12.50;94.20
4501;DHT22;2263;54.654;9.410;2022-11-12T15:26:39;12.50;94.20
4501;DHT22;2263;54.654;9.410;2022-11-12T15:37:07;12.50;94.20
4501;DHT22;2263;54.654;9.410;2022-11-12T15:39:57;12.50;94.20
4501;DHT22;2263;54.654;9.410;2022-11-12T15:42:32;12.50;94.20
4501;DHT22;2263;54.654;9.410;2022-11-12T15:45:18;12.50;94.10
4501;DHT22;2263;54.654;9.410;2022-11-12T15:47:46;12.50;94.10
4501;DHT22;2263;54.654;9.410;2022-11-12T15:50:19;12.50;94.20
4501;DHT22;2263;54.654;9.410;2022-11-12T15:52:49;12.50;94.10
4501;DHT22;2263;54.654;9.410;2022-11-12T15:55:17;12.50;94.10
4501;DHT22;2263;54.654;9.410;2022-11-12T15:57:47;12.50;94.10
4501;DHT22;2263;54.654;9.410;2022-11-12T16:00:18;12.50;94.10
4501;DHT22;2263;54.654;9.410;2022-11-12T16:02:50;12.50;94.10
4501;DHT22;2263;54.654;9.410;2022-11-12T16:05:18;12.40;94.00
4501;DHT22;2263;54.654;9.410;2022-11-12T16:07:46;12.40;94.10
4501;DHT22;2263;54.654;9.410;2022-11-12T16:10:14;12.40;94.00
4501;DHT22;2263;54.654;9.410;2022-11-12T16:12:42;12.40;94.10
4501;DHT22;2263;54.654;9.410;2022-11-12T16:15:20;12.40;94.00
4501;DHT22;2263;54.654;9.410;2022-11-12T16:17:52;12.40;94.00
4501;DHT22;2263;54.654;9.410;2022-11-12T16:20:23;12.40;94.00
4501;DHT22;2263;54.654;9.410;2022-11-12T16:22:52;12.40;94.00
4501;DHT22;2263;54.654;9.410;2022-11-12T16:25:20;12.40;94.00
4501;DHT22;2263;54.654;9.410;2022-11-12T16:27:47;12.40;94.00
4501;DHT22;2263;54.654;9.410;2022-11-12T16:30:24;12.40;94.00
4501;DHT22;2263;54.654;9.410;2022-11-12T16:32:51;12.40;94.00
4501;DHT22;2263;54.654;9.410;2022-11-12T16:35:19;12.40;94.00
4501;DHT22;2263;54.654;9.410;2022-11-12T16:37:46;12.40;94.00
4501;DHT22;2263;54.654;9.410;2022-11-12T16:40:19;12.40;94.00
4501;DHT22;2263;54.654;9.410;2022-11-12T16:42:47;12.40;94.00
4501;DHT22;2263;54.654;9.410;2022-11-12T16:45:16;12.40;94.00
4501;DHT22;2263;54.654;9.410;2022-11-12T16:47:52;12.40;94.30
4501;DHT22;2263;54.654;9.410;2022-11-12T16:50:22;12.40;94.00
4501;DHT22;2263;54.654;9.410;2022-11-12T16:52:50;12.40;94.00
4501;DHT22;2263;54.654;9.410;2022-11-12T16:55:19;12.40;94.00
4501;DHT22;2263;54.654;9.410;2022-11-12T16:57:46;12.40;94.00
4501;DHT22;2263;54.654;9.410;2022-11-12T17:00:16;12.40;94.00
4501;DHT22;2263;54.654;9.410;2022-11-12T17:02:44;12.40;94.00
4501;DHT22;2263;54.654;9.410;2022-11-12T17:05:21;12.30;93.90
4501;DHT22;2263;54.654;9.410;2022-11-12T17:07:53;12.30;93.90
4501;DHT22;2263;54.654;9.410;2022-11-12T17:10:20;12.30;93.90
4501;DHT22;2263;54.654;9.410;2022-11-12T17:12:52;12.30;93.90
4501;DHT22;2263;54.654;9.410;2022-11-12T17:15:19;12.30;93.80
4501;DHT22;2263;54.654;9.410;2022-11-12T17:17:46;12.20;93.70
4501;DHT22;2263;54.654;9.410;2022-11-12T17:20:14;12.20;93.70
4501;DHT22;2263;54.654;9.410;2022-11-12T17:22:41;12.20;93.70
4501;DHT22;2263;54.654;9.410;2022-11-12T17:25:08;12.20;93.60
4501;DHT22;2263;54.654;9.410;2022-11-12T17:27:35;12.20;93.60
4501;DHT22;2263;54.654;9.410;2022-11-12T17:30:03;12.10;93.50
4501;DHT22;2263;54.654;9.410;2022-11-12T17:32:31;12.20;93.50
4501;DHT22;2263;54.654;9.410;2022-11-12T17:34:58;12.10;93.40
4501;DHT22;2263;54.654;9.410;2022-11-12T17:37:25;12.10;93.30
4501;DHT22;2263;54.654;9.410;2022-11-12T17:39:52;12.10;93.40
4501;DHT22;2263;54.654;9.410;2022-11-12T17:42:19;12.10;93.30
4501;DHT22;2263;54.654;9.410;2022-11-12T17:44:46;12.00;93.30
4501;DHT22;2263;54.654;9.410;2022-11-12T17:47:14;12.00;93.30
4501;DHT22;2263;54.654;9.410;2022-11-12T17:49:42;12.00;93.10
4501;DHT22;2263;54.654;9.410;2022-11-12T17:52:09;12.00;93.20
4501;DHT22;2263;54.654;9.410;2022-11-12T17:54:36;12.00;93.20
4501;DHT22;2263;54.654;9.410;2022-11-12T17:57:03;12.00;93.20
4501;DHT22;2263;54.654;9.410;2022-11-12T17:59:30;11.90;93.10
4501;DHT22;2263;54.654;9.410;2022-11-12T18:01:57;11.90;93.20
4501;DHT22;2263;54.654;9.410;2022-11-12T18:04:25;11.90;93.10
4501;DHT22;2263;54.654;9.410;2022-11-12T18:06:56;11.90;93.10
4501;DHT22;2263;54.654;9.410;2022-11-12T18:09:24;11.90;93.00
4501;DHT22;2263;54.654;9.410;2022-11-12T18:11:52;11.80;92.80
4501;DHT22;2263;54.654;9.410;2022-11-12T18:14:23;11.80;92.90
4501;DHT22;2263;54.654;9.410;2022-11-12T18:16:51;11.80;92.80
4501;DHT22;2263;54.654;9.410;2022-11-12T18:19:19;11.80;92.70
4501;DHT22;2263;54.654;9.410;2022-11-12T18:21:46;11.80;92.70
4501;DHT22;2263;54.654;9.410;2022-11-12T18:24:14;11.70;92.50
4501;DHT22;2263;54.654;9.410;2022-11-12T18:26:42;11.70;92.60
4501;DHT22;2263;54.654;9.410;2022-11-12T18:29:10;11.70;92.60
4501;DHT22;2263;54.654;9.410;2022-11-12T18:31:38;11.70;92.60